Westerlo, NY (12193)

7:12 PM EDT on March 22, 2017 (GMT -0400)
Remley Lane - 1760' | | Change Station

Elev 1760 ft 42.58 °N, 74.07 °W | Updated 2 minutes ago

Clear
Clear
13.2 °F
Feels Like -1 °F
N
13.0
Wind Variable Wind from WNW
Gusts 26.0 mph

Today
High -- | Low -- °F
--% Chance of Precip.
Yesterday
High -- | Low -- °F
Precip. -- in
Pressure 30.36 in
Visibility 10.0 miles
Clouds Few 6000 ft
Windchill -1 °F
Dew Point -5 °F
Humidity 44%
Rainfall 0.00 in
Snow Depth Not available.
6:55 AM 7:11 PM
Waning Crescent, 28% visible
METAR KALB 222251Z 32016G24KT 10SM FEW060 M04/M21 A3034 RMK AO2 PK WND 33026/2210 SLP279 T10441211
Pressure 30.36 in
Visibility 10.0 miles
Clouds Few 6000 ft
Windchill -1 °F
Dew Point -5 °F
Humidity 44%
Rainfall 0.00 in
Snow Depth Not available.
6:55 AM 7:11 PM
Waning Crescent, 28% visible
METAR KALB 222251Z 32016G24KT 10SM FEW060 M04/M21 A3034 RMK AO2 PK WND 33026/2210 SLP279 T10441211

Get Severe Weather Alerts

Thanks for signing up!

Be on the lookout for a verification email in your inbox.

You'll start receiving the daily forecast at 8 AM.

×

10-Day Weather Forecast

Almanac

Astronomy

Mar. 22, 2017 Rise Set
Actual Time
Civil Twilight
Nautical Twilight
Astronomical Twilight
Moon
Length of Visible Light
Length of Day
Tomorrow will be .
, % of the Moon is Illuminated

Today's Extremes

State Highs State Lows

Community

WunderPhotos

Upload Photos

1,962,540 photos uploaded!

WunderBlog® & News

Nearby

Air Quality

  Air Quality AQ Index Pollutant
Not available.

Snow Depth

Station Depth Elevation

Earthquake Activity

City Distance Mag. Time & Date
Minimum magnitude displayed is 2.5.

Earthquake Activity

City Distance Mag. Time & Date
Minimum magnitude displayed is 2.5.

Coastal Water Temperatures

Place Temperature

Stations

Nearby Weather Stations

Station Location Temp. Windchill Dew Point Humidity Wind Precip. Elev Updated Type
                   

Watches & Warnings

There are currently no watches in effect.